Time;durP1;ratioP1;P1;durP2;ratioP2;P2;SDS_P1;SDS_P2;PMS_P1;PMS_P2;Temp;Humidity;BMP_temperature;BMP_pressure;BME280_temperature;BME280_humidity;BME280_pressure;Samples;Min_cycle;Max_cycle;Signal;HPM_P1;HPM_P2
2023/07/31 00:01:24;;;;;;;;;8.00;8.00;;;;;24.42;52.75;100256.89;109677;1268;19671;-35
2023/07/31 00:03:51;;;;;;;;;7.00;7.00;;;;;24.41;52.66;100252.98;109639;1257;20835;-35
2023/07/31 00:06:19;;;;;;;;;7.00;7.00;;;;;24.41;52.31;100251.28;109652;1254;21157;-35
2023/07/31 00:08:46;;;;;;;;;6.00;6.00;;;;;24.41;52.33;100256.34;109665;1268;18672;-35
2023/07/31 00:11:13;;;;;;;;;6.00;6.00;;;;;24.42;52.36;100258.98;109653;1264;20747;-35
2023/07/31 00:13:41;;;;;;;;;8.00;8.00;;;;;24.41;52.26;100260.94;109637;1255;19785;-35
2023/07/31 00:16:08;;;;;;;;;8.00;8.00;;;;;24.41;52.27;100275.38;109649;1255;20090;-34
2023/07/31 00:18:35;;;;;;;;;10.00;8.00;;;;;24.44;52.17;100279.88;109657;1254;19346;-35
2023/07/31 00:21:03;;;;;;;;;6.00;6.00;;;;;24.44;52.26;100279.33;109654;1255;19682;-34
2023/07/31 00:23:30;;;;;;;;;10.00;7.00;;;;;24.41;52.15;100284.73;109667;1268;18697;-34
2023/07/31 00:25:57;;;;;;;;;10.00;9.00;;;;;24.41;52.31;100286.70;109664;1268;19389;-35
2023/07/31 00:28:24;;;;;;;;;9.50;7.50;;;;;24.39;52.20;100283.20;109602;1255;22194;-34
2023/07/31 00:30:52;;;;;;;;;7.00;6.00;;;;;24.40;52.35;100281.05;109680;1264;19961;-34
2023/07/31 00:33:19;;;;;;;;;7.00;7.00;;;;;24.40;52.18;100276.83;109650;1253;20813;-34
2023/07/31 00:35:46;;;;;;;;;6.00;5.00;;;;;24.38;52.07;100276.27;109672;1268;18243;-35
2023/07/31 00:38:14;;;;;;;;;8.00;7.00;;;;;24.39;51.91;100277.98;109670;1268;18672;-34
2023/07/31 00:40:41;;;;;;;;;7.00;7.00;;;;;24.39;51.84;100282.43;109670;1255;22613;-34
2023/07/31 00:43:08;;;;;;;;;7.00;6.00;;;;;24.39;51.79;100281.56;109644;1254;19719;-34
2023/07/31 00:45:35;;;;;;;;;6.00;6.00;;;;;24.39;51.89;100281.63;109595;1261;19959;-34
2023/07/31 00:48:03;;;;;;;;;6.00;6.00;;;;;24.38;51.76;100283.55;109633;1254;20806;-34
2023/07/31 00:50:30;;;;;;;;;6.00;6.00;;;;;24.39;51.79;100289.77;109662;1263;22796;-35
2023/07/31 00:52:57;;;;;;;;;5.50;5.00;;;;;24.36;51.34;100282.72;109680;1254;20086;-35
2023/07/31 00:55:25;;;;;;;;;7.00;7.00;;;;;24.35;51.47;100281.52;109642;1255;21986;-35
2023/07/31 00:57:52;;;;;;;;;6.33;6.33;;;;;24.36;51.44;100276.85;109651;1268;22165;-35
2023/07/31 01:00:20;;;;;;;;;6.67;5.67;;;;;24.37;51.35;100274.04;109657;1268;18677;-35
2023/07/31 01:02:47;;;;;;;;;5.00;5.00;;;;;24.38;51.33;100268.70;109643;1255;21871;-34
2023/07/31 01:05:14;;;;;;;;;6.00;6.00;;;;;24.36;51.30;100259.98;109657;1268;18489;-35
2023/07/31 01:07:42;;;;;;;;;5.00;5.00;;;;;24.34;51.07;100262.06;109641;1264;22795;-35
2023/07/31 01:10:09;;;;;;;;;5.00;5.00;;;;;24.35;51.27;100264.84;109703;1255;20792;-35
2023/07/31 01:12:37;;;;;;;;;7.00;6.67;;;;;24.36;51.14;100269.06;109671;1253;22085;-36
2023/07/31 01:15:04;;;;;;;;;5.00;5.00;;;;;24.37;50.89;100269.60;109682;1268;18801;-36
2023/07/31 01:17:32;;;;;;;;;6.00;6.00;;;;;24.36;50.85;100270.61;109660;1254;21013;-35
2023/07/31 01:19:59;;;;;;;;;5.00;5.00;;;;;24.32;50.88;100276.72;109687;1268;18462;-35
2023/07/31 01:22:26;;;;;;;;;6.00;5.00;;;;;24.33;50.97;100279.27;109648;1254;21241;-35
2023/07/31 01:24:54;;;;;;;;;7.00;7.00;;;;;24.34;50.86;100277.55;109707;1254;20845;-34
2023/07/31 01:27:21;;;;;;;;;5.00;5.00;;;;;24.35;50.69;100282.80;109665;1254;22617;-34
2023/07/31 01:29:48;;;;;;;;;5.50;5.00;;;;;24.34;50.74;100281.45;109690;1254;18710;-34
2023/07/31 01:32:16;;;;;;;;;5.00;5.00;;;;;24.35;50.77;100281.91;109648;1255;20812;-36
2023/07/31 01:34:43;;;;;;;;;5.00;5.00;;;;;24.33;50.44;100282.88;109692;1254;19548;-35
2023/07/31 01:37:10;;;;;;;;;5.00;5.00;;;;;24.32;50.65;100288.66;109662;1255;20126;-35
2023/07/31 01:39:38;;;;;;;;;5.00;5.00;;;;;24.31;50.83;100291.03;109672;1268;22375;-35
2023/07/31 01:42:05;;;;;;;;;5.00;4.00;;;;;24.33;50.76;100286.08;109687;1268;18555;-34
2023/07/31 01:44:32;;;;;;;;;5.00;5.00;;;;;24.33;50.77;100288.90;109686;1254;20154;-34
2023/07/31 01:47:00;;;;;;;;;5.00;5.00;;;;;24.32;50.70;100288.06;109704;1255;22014;-34
2023/07/31 01:49:27;;;;;;;;;3.00;3.00;;;;;24.31;51.01;100280.90;109646;1256;19708;-34
2023/07/31 01:51:55;;;;;;;;;4.00;4.00;;;;;24.32;50.86;100280.45;109672;1268;20058;-35
2023/07/31 01:54:22;;;;;;;;;6.00;5.00;;;;;24.35;50.68;100275.17;109669;1255;21927;-34
2023/07/31 01:56:49;;;;;;;;;6.00;5.00;;;;;24.33;50.79;100271.71;109673;1254;21192;-34
2023/07/31 01:59:17;;;;;;;;;5.50;5.00;;;;;24.31;50.83;100271.42;109668;1254;20062;-35
2023/07/31 02:01:44;;;;;;;;;6.00;5.00;;;;;24.31;50.80;100273.20;109660;1268;19532;-34
2023/07/31 02:04:11;;;;;;;;;5.00;5.00;;;;;24.30;51.04;100272.83;109667;1260;19630;-35
2023/07/31 02:06:38;;;;;;;;;5.00;5.00;;;;;24.28;50.93;100273.30;109634;1268;23830;-35
2023/07/31 02:09:06;;;;;;;;;6.00;5.00;;;;;24.32;50.85;100271.09;109617;1254;20848;-35
2023/07/31 02:11:33;;;;;;;;;6.00;6.00;;;;;24.32;51.07;100274.85;109677;1264;19515;-35
2023/07/31 02:14:00;;;;;;;;;4.00;4.00;;;;;24.32;50.90;100272.02;109668;1268;18715;-35
2023/07/31 02:16:28;;;;;;;;;6.00;5.00;;;;;24.31;51.02;100273.67;109666;1255;20825;-35
2023/07/31 02:18:55;;;;;;;;;5.00;5.00;;;;;24.32;50.72;100273.44;109670;1253;19649;-35
2023/07/31 02:21:22;;;;;;;;;4.00;3.00;;;;;24.32;51.01;100271.85;109636;1268;18521;-35
2023/07/31 02:23:50;;;;;;;;;6.00;5.00;;;;;24.29;51.14;100269.41;109619;1255;20840;-37
2023/07/31 02:26:17;;;;;;;;;6.00;5.00;;;;;24.28;50.99;100272.91;109671;1268;18535;-35
2023/07/31 02:28:44;;;;;;;;;5.00;5.00;;;;;24.28;51.29;100274.62;109664;1254;22740;-36
2023/07/31 02:31:11;;;;;;;;;5.00;5.00;;;;;24.28;51.15;100275.64;109657;1262;20744;-35
2023/07/31 02:33:39;;;;;;;;;6.50;4.00;;;;;24.31;50.89;100273.03;109649;1268;20833;-36
2023/07/31 02:36:06;;;;;;;;;7.00;6.00;;;;;24.31;51.09;100270.49;109663;1254;20128;-36
2023/07/31 02:38:33;;;;;;;;;6.00;5.00;;;;;24.30;51.05;100281.23;109669;1254;21039;-36
2023/07/31 02:41:01;;;;;;;;;6.00;6.00;;;;;24.30;50.99;100279.28;109673;1252;20117;-36
2023/07/31 02:43:28;;;;;;;;;5.00;5.00;;;;;24.28;50.90;100283.27;109673;1254;20067;-36
2023/07/31 02:45:55;;;;;;;;;3.00;3.00;;;;;24.27;51.00;100281.26;109689;1254;21956;-36
2023/07/31 02:48:23;;;;;;;;;4.00;3.00;;;;;24.29;51.00;100285.77;109679;1268;22149;-36
2023/07/31 02:50:50;;;;;;;;;4.00;4.00;;;;;24.30;50.91;100291.11;109678;1254;20188;-36
2023/07/31 02:53:17;;;;;;;;;3.00;3.00;;;;;24.30;50.99;100290.99;109662;1254;20657;-36
2023/07/31 02:55:45;;;;;;;;;6.00;5.50;;;;;24.27;50.84;100287.71;109657;1254;19671;-36
2023/07/31 02:58:12;;;;;;;;;2.50;2.50;;;;;24.26;51.09;100291.29;109690;1254;20080;-36
2023/07/31 03:00:39;;;;;;;;;5.00;5.00;;;;;24.25;50.98;100288.21;109691;1252;20807;-36
2023/07/31 03:03:06;;;;;;;;;6.00;5.00;;;;;24.23;51.03;100288.25;109662;1268;18379;-37
2023/07/31 03:05:34;;;;;;;;;6.00;6.00;;;;;24.25;51.07;100286.80;109654;1267;18661;-36
2023/07/31 03:08:01;;;;;;;;;6.67;6.00;;;;;24.27;50.92;100290.44;109666;1268;19693;-37
2023/07/31 03:10:28;;;;;;;;;5.50;5.00;;;;;24.27;50.89;100291.92;109688;1252;21382;-36
2023/07/31 03:12:56;;;;;;;;;5.00;5.00;;;;;24.28;50.72;100294.05;109680;1254;20024;-36
2023/07/31 03:15:23;;;;;;;;;5.00;5.00;;;;;24.29;50.77;100295.55;109676;1254;20996;-36
2023/07/31 03:17:50;;;;;;;;;6.50;6.50;;;;;24.28;50.80;100299.18;109687;1268;18612;-36
2023/07/31 03:20:18;;;;;;;;;5.00;5.00;;;;;24.25;50.89;100307.89;109687;1262;20041;-36
2023/07/31 03:22:45;;;;;;;;;6.67;6.00;;;;;24.22;50.99;100307.66;109675;1268;19445;-36
2023/07/31 03:25:14;;;;;;;;;6.00;6.00;;;;;24.21;50.88;100303.61;109659;1268;18444;-36
2023/07/31 03:27:41;;;;;;;;;5.00;5.00;;;;;24.19;50.78;100302.02;109668;1252;20091;-36
2023/07/31 03:30:08;;;;;;;;;5.00;3.00;;;;;24.23;50.92;100305.05;109664;1268;20900;-36
2023/07/31 03:32:36;;;;;;;;;4.33;4.33;;;;;24.23;50.61;100307.02;109699;1254;19695;-36
2023/07/31 03:35:03;;;;;;;;;5.00;5.00;;;;;24.21;50.72;100310.90;109679;1254;20018;-36
2023/07/31 03:37:30;;;;;;;;;6.00;5.00;;;;;24.23;50.72;100315.57;109660;1254;22075;-36
2023/07/31 03:39:58;;;;;;;;;5.50;5.50;;;;;24.24;50.66;100315.60;109665;1254;19752;-36
2023/07/31 03:42:25;;;;;;;;;5.00;5.00;;;;;24.23;50.52;100317.33;109636;1268;22766;-36
2023/07/31 03:44:52;;;;;;;;;5.00;3.00;;;;;24.19;50.67;100321.01;109696;1260;19345;-37
2023/07/31 03:47:19;;;;;;;;;3.00;3.00;;;;;24.20;50.75;100322.80;109690;1268;18717;-36
2023/07/31 03:49:47;;;;;;;;;6.00;6.00;;;;;24.21;50.63;100322.52;109662;1254;20073;-36
2023/07/31 03:52:14;;;;;;;;;5.00;5.00;;;;;24.19;50.66;100320.02;109658;1253;20796;-36
2023/07/31 03:54:44;;;;;;;;;7.00;6.50;;;;;24.19;50.42;100320.23;109639;1262;19700;-36
2023/07/31 03:57:11;;;;;;;;;7.00;6.00;;;;;24.22;50.71;100318.16;109672;1252;20220;-36
2023/07/31 03:59:39;;;;;;;;;6.00;5.00;;;;;24.19;50.54;100316.37;109682;1266;20785;-36
2023/07/31 04:02:06;;;;;;;;;5.00;5.00;;;;;24.18;50.74;100320.10;109668;1252;19661;-36
2023/07/31 04:04:33;;;;;;;;;6.00;6.00;;;;;24.19;50.51;100324.45;109667;1267;18661;-36
2023/07/31 04:07:01;;;;;;;;;7.00;6.00;;;;;24.19;50.51;100325.11;109654;1261;20707;-36
2023/07/31 04:09:28;;;;;;;;;3.00;3.00;;;;;24.23;50.50;100332.16;109679;1261;19789;-36
2023/07/31 04:11:55;;;;;;;;;7.00;7.00;;;;;24.25;50.23;100332.73;109592;1254;20102;-36
2023/07/31 04:14:23;;;;;;;;;5.00;5.00;;;;;24.23;50.39;100333.36;109576;1254;20784;-36
2023/07/31 04:16:50;;;;;;;;;7.00;7.00;;;;;24.23;50.28;100332.88;109636;1254;19709;-36
2023/07/31 04:19:18;;;;;;;;;7.00;7.00;;;;;24.26;50.36;100329.99;109585;1268;19847;-36
2023/07/31 04:21:45;;;;;;;;;6.00;6.00;;;;;24.21;50.34;100327.60;109694;1268;19246;-36
2023/07/31 04:24:12;;;;;;;;;5.00;5.00;;;;;24.20;50.17;100328.65;109660;1252;19638;-36
2023/07/31 04:26:40;;;;;;;;;6.00;5.50;;;;;24.23;50.22;100329.59;109605;1268;18713;-36
2023/07/31 04:29:07;;;;;;;;;7.00;7.00;;;;;24.23;50.27;100331.08;109570;1254;20848;-36
2023/07/31 04:31:34;;;;;;;;;7.00;7.00;;;;;24.22;50.23;100334.02;109593;1268;19905;-35
2023/07/31 04:34:01;;;;;;;;;7.00;6.50;;;;;24.21;50.10;100331.75;109582;1268;22196;-35
2023/07/31 04:36:29;;;;;;;;;6.50;6.50;;;;;24.21;50.11;100332.85;109640;1268;19575;-35
2023/07/31 04:38:56;;;;;;;;;7.00;6.00;;;;;24.20;49.86;100330.23;109687;1252;21093;-35
2023/07/31 04:41:23;;;;;;;;;6.00;6.00;;;;;24.21;50.04;100330.11;109661;1252;23941;-36
2023/07/31 04:43:51;;;;;;;;;7.00;6.00;;;;;24.21;49.95;100330.44;109660;1268;19474;-35
2023/07/31 04:46:18;;;;;;;;;6.00;5.00;;;;;24.18;49.91;100331.42;109648;1252;19707;-35
2023/07/31 04:48:45;;;;;;;;;5.00;5.00;;;;;24.22;49.85;100336.89;109681;1268;18549;-36
2023/07/31 04:51:13;;;;;;;;;11.00;7.00;;;;;24.21;49.96;100330.82;109680;1253;22744;-36
2023/07/31 04:53:40;;;;;;;;;6.00;6.00;;;;;24.23;49.83;100331.34;109672;1267;18573;-35
2023/07/31 04:56:08;;;;;;;;;6.50;6.50;;;;;24.20;49.80;100326.69;109674;1268;18825;-35
2023/07/31 04:58:35;;;;;;;;;7.00;6.00;;;;;24.20;49.75;100331.27;109679;1252;22822;-35
2023/07/31 05:01:02;;;;;;;;;6.50;5.50;;;;;24.20;49.53;100327.30;109677;1252;19654;-35
2023/07/31 05:03:30;;;;;;;;;6.00;6.00;;;;;24.18;49.54;100321.80;109662;1254;22935;-35
2023/07/31 05:05:57;;;;;;;;;6.00;6.00;;;;;24.19;49.74;100322.94;109685;1252;19421;-36
2023/07/31 05:08:24;;;;;;;;;5.50;5.50;;;;;24.18;49.51;100320.75;109647;1267;19830;-36
2023/07/31 05:10:52;;;;;;;;;7.00;6.00;;;;;24.21;49.50;100320.16;109671;1268;18729;-36
2023/07/31 05:13:19;;;;;;;;;5.00;5.00;;;;;24.21;49.37;100321.96;109663;1254;22804;-36
2023/07/31 05:15:49;;;;;;;;;5.00;5.00;;;;;24.24;49.29;100321.08;109629;1253;19733;-35
2023/07/31 05:18:16;;;;;;;;;5.00;5.00;;;;;24.23;49.55;100329.59;109587;1262;20284;-36
2023/07/31 05:20:43;;;;;;;;;3.00;3.00;;;;;24.23;49.25;100335.71;109565;1262;20776;-35
2023/07/31 05:23:11;;;;;;;;;6.50;6.00;;;;;24.21;49.57;100339.36;109592;1254;19745;-36
2023/07/31 05:25:38;;;;;;;;;5.00;5.00;;;;;24.23;49.24;100336.15;109669;1254;22769;-35
2023/07/31 05:28:05;;;;;;;;;10.00;8.00;;;;;24.24;49.21;100332.40;109700;1268;19338;-35
2023/07/31 05:30:33;;;;;;;;;7.00;7.00;;;;;24.25;49.13;100334.04;109683;1253;19708;-35
2023/07/31 05:33:00;;;;;;;;;7.00;7.00;;;;;24.22;49.34;100336.27;109664;1254;20086;-35
2023/07/31 05:35:27;;;;;;;;;8.00;8.00;;;;;24.23;49.16;100333.46;109689;1252;19542;-35
2023/07/31 05:37:54;;;;;;;;;6.00;6.00;;;;;24.22;49.12;100333.66;109617;1254;19723;-35
2023/07/31 05:40:22;;;;;;;;;7.00;7.00;;;;;24.15;49.38;100339.48;109681;1254;20097;-35
2023/07/31 05:42:49;;;;;;;;;7.00;7.00;;;;;24.12;49.32;100341.40;109611;1252;20970;-36
2023/07/31 05:45:17;;;;;;;;;6.00;6.00;;;;;24.09;49.22;100349.50;109581;1254;22021;-35
2023/07/31 05:47:44;;;;;;;;;9.00;8.00;;;;;24.09;49.16;100347.21;109662;1268;18668;-35
2023/07/31 05:50:11;;;;;;;;;9.00;9.00;;;;;24.08;48.86;100349.69;109672;1260;20745;-35
2023/07/31 05:52:39;;;;;;;;;9.00;8.00;;;;;24.05;49.10;100350.35;109685;1268;18523;-35
2023/07/31 05:55:06;;;;;;;;;7.00;7.00;;;;;23.97;49.30;100354.39;109709;1255;20117;-35
2023/07/31 05:57:33;;;;;;;;;9.00;8.00;;;;;23.93;49.45;100349.96;109682;1254;20769;-35
2023/07/31 06:00:00;;;;;;;;;9.00;9.00;;;;;23.89;49.68;100349.65;109613;1261;22538;-36
2023/07/31 06:02:28;;;;;;;;;10.00;9.00;;;;;23.87;49.43;100353.52;109575;1253;19981;-35
2023/07/31 06:04:55;;;;;;;;;7.00;7.00;;;;;23.83;49.35;100355.94;109619;1252;19563;-35
2023/07/31 06:07:23;;;;;;;;;9.00;7.00;;;;;23.81;49.20;100359.69;109635;1253;20046;-36
2023/07/31 06:09:50;;;;;;;;;7.00;6.00;;;;;23.83;49.32;100361.02;109595;1268;18851;-36
2023/07/31 06:12:18;;;;;;;;;5.67;5.67;;;;;23.73;49.77;100360.98;109641;1262;20718;-36
2023/07/31 06:14:46;;;;;;;;;5.00;5.00;;;;;23.88;49.63;100352.23;109661;1253;20925;-37
2023/07/31 06:17:13;;;;;;;;;7.00;6.50;;;;;24.00;49.38;100350.77;109633;1268;18655;-36
2023/07/31 06:19:40;;;;;;;;;7.00;6.00;;;;;24.11;49.24;100348.47;109645;1262;21930;-36
2023/07/31 06:22:07;;;;;;;;;6.50;6.50;;;;;24.12;49.38;100347.91;109678;1268;18385;-36
2023/07/31 06:24:35;;;;;;;;;5.50;5.50;;;;;24.13;49.12;100348.61;109583;1268;18686;-36
2023/07/31 06:27:03;;;;;;;;;8.00;6.50;;;;;24.14;49.11;100350.21;109531;1254;20819;-36
2023/07/31 06:29:31;;;;;;;;;7.33;6.67;;;;;24.14;48.81;100356.20;109580;1268;19612;-35
2023/07/31 06:31:58;;;;;;;;;6.50;6.00;;;;;24.13;48.60;100353.32;109548;1268;18625;-36
2023/07/31 06:34:25;;;;;;;;;6.00;6.00;;;;;24.06;48.70;100346.98;109597;1268;19443;-36
2023/07/31 06:36:53;;;;;;;;;7.00;7.00;;;;;24.01;48.95;100353.54;109682;1254;19692;-36
2023/07/31 06:39:20;;;;;;;;;7.00;7.00;;;;;23.95;49.08;100360.32;109680;1252;18648;-36
2023/07/31 06:41:47;;;;;;;;;6.00;6.00;;;;;23.88;49.45;100360.67;109669;1268;22702;-36
2023/07/31 06:44:15;;;;;;;;;6.67;6.67;;;;;24.06;49.23;100359.14;109695;1253;19670;-36
2023/07/31 06:46:42;;;;;;;;;7.00;6.00;;;;;24.18;49.17;100360.34;109651;1268;19594;-37
2023/07/31 06:49:09;;;;;;;;;6.00;5.00;;;;;24.30;48.93;100365.55;109674;1253;20688;-36
2023/07/31 06:51:38;;;;;;;;;6.00;6.00;;;;;24.39;48.97;100362.60;109660;1255;20080;-36
2023/07/31 06:54:05;;;;;;;;;6.00;6.00;;;;;24.43;48.83;100364.58;109654;1268;20029;-36
2023/07/31 06:56:33;;;;;;;;;7.00;6.00;;;;;24.49;48.82;100367.96;109642;1254;20924;-36
2023/07/31 06:59:00;;;;;;;;;3.00;3.00;;;;;24.53;48.50;100366.46;109681;1254;19722;-36
2023/07/31 07:01:28;;;;;;;;;6.00;5.00;;;;;24.55;48.62;100362.98;109599;1252;22848;-36
2023/07/31 07:03:56;;;;;;;;;7.00;6.00;;;;;24.49;48.98;100363.26;109400;1268;331027;-36
2023/07/31 07:06:23;;;;;;;;;9.00;7.00;;;;;24.50;48.25;100361.49;109615;1254;19753;-36
2023/07/31 07:08:50;;;;;;;;;6.00;6.00;;;;;24.43;48.22;100359.61;109670;1268;19987;-36
2023/07/31 07:11:18;;;;;;;;;6.00;6.00;;;;;24.28;48.41;100361.42;109671;1268;19339;-35
2023/07/31 07:13:45;;;;;;;;;6.00;6.00;;;;;24.24;48.48;100363.67;109589;1252;19626;-35
2023/07/31 07:16:12;;;;;;;;;7.00;6.00;;;;;24.14;48.91;100360.96;109544;1252;21286;-36
2023/07/31 07:18:40;;;;;;;;;7.00;6.00;;;;;24.07;48.75;100362.45;109536;1254;22805;-37
2023/07/31 07:21:07;;;;;;;;;7.00;7.00;;;;;24.09;48.38;100360.48;109598;1252;19786;-36
2023/07/31 07:23:35;;;;;;;;;6.00;6.00;;;;;24.17;47.87;100360.62;109659;1268;20108;-37
2023/07/31 07:26:03;;;;;;;;;6.50;6.00;;;;;24.18;48.16;100360.54;109679;1267;19335;-37
2023/07/31 07:28:30;;;;;;;;;6.00;6.00;;;;;24.13;47.97;100362.72;109675;1268;22695;-37
2023/07/31 07:30:58;;;;;;;;;6.00;6.00;;;;;24.09;48.14;100361.21;109660;1254;20136;-37
2023/07/31 07:33:25;;;;;;;;;6.50;6.50;;;;;24.15;48.08;100362.30;109658;1253;21001;-36
2023/07/31 07:35:53;;;;;;;;;5.50;5.50;;;;;24.19;47.69;100363.58;109577;1268;18498;-37
2023/07/31 07:38:20;;;;;;;;;6.00;5.50;;;;;24.20;47.71;100364.95;109621;1252;20082;-37
2023/07/31 07:40:50;;;;;;;;;6.00;6.00;;;;;24.17;47.61;100359.91;109596;1268;19381;-37
2023/07/31 07:43:17;;;;;;;;;6.00;6.00;;;;;24.20;47.35;100357.89;109593;1268;22209;-37
2023/07/31 07:45:45;;;;;;;;;7.00;6.00;;;;;24.21;47.14;100355.84;109610;1261;18862;-37
2023/07/31 07:48:12;;;;;;;;;5.00;5.00;;;;;24.19;47.36;100356.05;109603;1268;21062;-36
2023/07/31 07:50:39;;;;;;;;;6.50;6.50;;;;;24.19;47.62;100358.67;109598;1260;19641;-35
2023/07/31 07:53:07;;;;;;;;;7.00;7.00;;;;;24.16;47.23;100357.85;109587;1268;18703;-36
2023/07/31 07:55:34;;;;;;;;;6.00;6.00;;;;;24.17;46.82;100359.48;109589;1254;20747;-36
2023/07/31 07:58:01;;;;;;;;;8.00;7.00;;;;;24.20;46.77;100361.88;109479;1261;20815;-35
2023/07/31 08:00:29;;;;;;;;;7.00;6.00;;;;;24.05;47.50;100360.63;109586;1252;23374;-36
2023/07/31 08:02:57;;;;;;;;;67.00;50.00;;;;;24.14;47.22;100354.00;109568;1268;22648;-36
2023/07/31 08:05:24;;;;;;;;;77.50;56.00;;;;;24.15;47.34;100353.83;109602;1253;19622;-36
2023/07/31 08:07:52;;;;;;;;;90.00;64.00;;;;;24.19;47.54;100353.91;109637;1267;20112;-35
2023/07/31 08:10:19;;;;;;;;;101.00;75.00;;;;;24.35;47.37;100351.55;109701;1252;20869;-35
2023/07/31 08:12:46;;;;;;;;;123.50;96.00;;;;;24.38;47.32;100351.38;109668;1252;18660;-35
2023/07/31 08:15:14;;;;;;;;;154.00;121.00;;;;;24.42;47.52;100350.76;109610;1267;21618;-36
2023/07/31 08:17:41;;;;;;;;;147.50;117.50;;;;;24.53;47.27;100346.60;109616;1261;20644;-36
2023/07/31 08:20:09;;;;;;;;;143.50;113.50;;;;;24.60;47.27;100347.44;109565;1267;20288;-35
2023/07/31 08:22:36;;;;;;;;;93.00;66.00;;;;;24.64;47.25;100345.48;109576;1268;22860;-34
2023/07/31 08:25:04;;;;;;;;;103.00;80.00;;;;;24.63;46.78;100341.19;109604;1268;20738;-37
2023/07/31 08:27:31;;;;;;;;;99.00;78.00;;;;;24.68;46.75;100342.95;109574;1252;20005;-36
2023/07/31 08:29:58;;;;;;;;;91.00;67.00;;;;;24.67;47.13;100342.69;109599;1268;18717;-37
2023/07/31 08:32:26;;;;;;;;;77.00;59.00;;;;;24.67;47.23;100346.41;109559;1268;22168;-36
2023/07/31 08:34:53;;;;;;;;;72.00;56.00;;;;;24.69;47.74;100344.95;109580;1260;19890;-36
2023/07/31 08:37:20;;;;;;;;;19.00;15.00;;;;;24.72;46.98;100337.98;109581;1268;20373;-36
2023/07/31 08:39:48;;;;;;;;;14.00;11.00;;;;;24.59;44.13;100332.61;109606;1254;20809;-36
2023/07/31 08:42:15;;;;;;;;;7.00;7.00;;;;;24.57;43.23;100331.52;109633;1254;20095;-35
2023/07/31 08:44:42;;;;;;;;;6.00;6.00;;;;;24.47;42.61;100327.81;109564;1261;18649;-37
2023/07/31 08:47:10;;;;;;;;;6.00;6.00;;;;;24.46;42.71;100327.89;109611;1261;20734;-36
2023/07/31 08:49:37;;;;;;;;;6.00;5.00;;;;;24.42;42.79;100324.52;109644;1268;19215;-35
2023/07/31 08:52:04;;;;;;;;;5.00;5.00;;;;;24.35;43.37;100323.36;109522;1262;20135;-35
2023/07/31 08:54:33;;;;;;;;;6.00;3.00;;;;;24.35;43.48;100322.91;109631;1252;19368;-35
2023/07/31 08:57:00;;;;;;;;;5.00;4.00;;;;;24.35;43.32;100325.93;109614;1254;19743;-35
2023/07/31 08:59:28;;;;;;;;;5.00;5.00;;;;;24.26;43.08;100323.19;109615;1252;20438;-36
2023/07/31 09:01:55;;;;;;;;;7.00;6.00;;;;;24.18;43.00;100322.23;109592;1252;19355;-37
2023/07/31 09:04:22;;;;;;;;;5.50;5.50;;;;;24.14;42.89;100319.63;109608;1260;22735;-38
2023/07/31 09:06:49;;;;;;;;;3.00;3.00;;;;;24.11;42.97;100316.34;109574;1268;18651;-37
2023/07/31 09:09:17;;;;;;;;;7.50;6.50;;;;;24.06;43.16;100316.17;109582;1252;22048;-37
2023/07/31 09:11:44;;;;;;;;;6.00;5.00;;;;;23.98;43.23;100318.78;109669;1254;21300;-37
2023/07/31 09:14:11;;;;;;;;;6.00;6.00;;;;;23.92;43.27;100312.48;109617;1252;20099;-37
2023/07/31 09:16:39;;;;;;;;;5.00;5.00;;;;;23.95;43.17;100309.48;109639;1267;19542;-35
2023/07/31 09:19:06;;;;;;;;;6.00;5.00;;;;;23.87;43.31;100311.11;109609;1254;19680;-35
2023/07/31 09:21:33;;;;;;;;;5.00;5.00;;;;;23.91;43.38;100307.71;109578;1261;20052;-37
2023/07/31 09:24:01;;;;;;;;;5.50;5.50;;;;;23.91;43.48;100306.65;109571;1268;19510;-37
2023/07/31 09:26:28;;;;;;;;;7.00;6.00;;;;;23.85;43.83;100300.59;109609;1252;18360;-37
2023/07/31 09:28:55;;;;;;;;;6.00;6.00;;;;;23.83;43.91;100300.69;109673;1265;18633;-41
2023/07/31 09:31:23;;;;;;;;;7.00;6.00;;;;;23.72;43.96;100302.69;109602;1253;20781;-36
2023/07/31 09:33:50;;;;;;;;;5.50;5.50;;;;;23.82;43.84;100298.17;109597;1252;23012;-37
2023/07/31 09:36:17;;;;;;;;;6.33;6.33;;;;;23.92;44.05;100293.89;109612;1252;19063;-37
2023/07/31 09:38:45;;;;;;;;;6.00;6.00;;;;;23.96;43.41;100292.02;109587;1268;20807;-37
2023/07/31 09:41:13;;;;;;;;;5.67;5.67;;;;;23.95;43.45;100288.27;109564;1268;19802;-37
2023/07/31 09:43:41;;;;;;;;;7.00;7.00;;;;;24.01;43.46;100289.02;109640;1268;20071;-37
2023/07/31 09:46:09;;;;;;;;;6.00;6.00;;;;;24.00;44.20;100287.52;109687;1268;19434;-36
2023/07/31 09:48:37;;;;;;;;;10.00;9.00;;;;;24.05;44.28;100282.17;109628;1268;19971;-37
2023/07/31 09:51:04;;;;;;;;;6.00;6.00;;;;;23.96;44.44;100280.20;109608;1268;18817;-37
2023/07/31 09:53:34;;;;;;;;;7.67;6.67;;;;;24.05;44.09;100277.56;109587;1267;19474;-37
2023/07/31 09:56:02;;;;;;;;;7.00;7.00;;;;;23.99;43.87;100278.17;109574;1268;18645;-37
2023/07/31 09:58:29;;;;;;;;;7.67;7.67;;;;;23.82;44.35;100271.55;109580;1253;18645;-36
2023/07/31 10:00:57;;;;;;;;;9.00;7.00;;;;;23.71;44.00;100267.75;109688;1252;22001;-36
2023/07/31 10:03:24;;;;;;;;;9.50;9.00;;;;;23.57;44.25;100267.29;109644;1268;19606;-36
2023/07/31 10:05:53;;;;;;;;;9.00;9.00;;;;;23.50;45.10;100264.17;109691;1268;19779;-36
2023/07/31 10:08:22;;;;;;;;;9.00;9.00;;;;;23.65;44.92;100261.26;109660;1268;20794;-36
2023/07/31 10:10:50;;;;;;;;;8.00;8.00;;;;;23.75;44.38;100259.81;109608;1268;18253;-36
2023/07/31 10:13:17;;;;;;;;;11.00;10.00;;;;;23.75;44.69;100254.06;109579;1268;22862;-36
2023/07/31 10:15:45;;;;;;;;;7.67;7.00;;;;;23.64;44.57;100256.44;109555;1268;21730;-38
2023/07/31 10:18:13;;;;;;;;;;;;;;;23.56;44.82;100250.84;109595;1268;21871;-37
2023/07/31 10:20:41;;;;;;;;;8.00;8.00;;;;;23.74;44.01;100249.83;109625;1252;20862;-37
2023/07/31 10:23:09;;;;;;;;;9.00;9.00;;;;;23.70;44.55;100243.44;109663;1252;20661;-37
2023/07/31 10:25:37;;;;;;;;;10.00;9.00;;;;;23.63;44.81;100236.23;109623;1261;18534;-37
2023/07/31 10:28:04;;;;;;;;;10.50;10.00;;;;;23.52;45.28;100238.00;109659;1252;18740;-37
2023/07/31 10:30:32;;;;;;;;;7.00;7.00;;;;;23.56;45.00;100237.23;109686;1267;20612;-43
2023/07/31 10:32:59;;;;;;;;;13.00;11.00;;;;;23.52;45.06;100232.93;109527;1268;20464;-37
2023/07/31 10:35:27;;;;;;;;;12.50;11.50;;;;;23.28;45.79;100234.27;109626;1254;20246;-38
2023/07/31 10:37:54;;;;;;;;;13.00;13.00;;;;;23.47;45.73;100237.11;109623;1268;21417;-36
2023/07/31 10:40:21;;;;;;;;;11.00;11.00;;;;;23.46;46.40;100238.93;109498;1261;20040;-37
2023/07/31 10:42:49;;;;;;;;;10.00;10.00;;;;;23.46;46.75;100240.61;109636;1268;20039;-37
2023/07/31 10:45:16;;;;;;;;;9.00;9.00;;;;;23.48;46.77;100258.52;109669;1268;21107;-37
2023/07/31 10:47:43;;;;;;;;;21.00;19.00;;;;;23.34;47.65;100267.11;109626;1253;20134;-37
2023/07/31 10:50:11;;;;;;;;;27.50;27.00;;;;;23.03;49.57;100281.78;109568;1262;18760;-36
2023/07/31 10:52:38;;;;;;;;;15.00;15.00;;;;;23.12;51.20;100287.31;109638;1254;20813;-36
2023/07/31 10:55:05;;;;;;;;;24.00;24.00;;;;;22.90;53.46;100290.98;109647;1254;20074;-36
2023/07/31 10:57:32;;;;;;;;;23.00;23.00;;;;;22.68;54.95;100280.99;109654;1254;20146;-36
2023/07/31 11:00:00;;;;;;;;;9.00;9.00;;;;;22.77;55.59;100280.55;109640;1254;20813;-36
2023/07/31 11:02:31;;;;;;;;;9.00;9.00;;;;;22.65;55.71;100281.74;109634;1252;22813;-35
2023/07/31 11:04:58;;;;;;;;;9.50;9.50;;;;;22.64;54.77;100271.70;109639;1252;22215;-36
2023/07/31 11:07:26;;;;;;;;;12.00;11.00;;;;;22.79;53.83;100258.73;109654;1253;20734;-36
2023/07/31 11:09:53;;;;;;;;;8.50;8.50;;;;;22.72;54.56;100259.98;109662;1255;19667;-36
2023/07/31 11:12:20;;;;;;;;;9.00;9.00;;;;;22.61;54.33;100259.41;109523;1268;18655;-36
2023/07/31 11:14:47;;;;;;;;;10.00;10.00;;;;;22.50;54.45;100255.27;109603;1254;20891;-36